createdAt,value
2018-10-21T00:00:54.760Z,53.50
2018-10-21T00:01:54.721Z,53.40
2018-10-21T00:02:54.790Z,51.70
2018-10-21T00:03:54.702Z,51.00
2018-10-21T00:04:54.708Z,49.60
2018-10-21T00:05:54.702Z,47.70
2018-10-21T00:06:54.682Z,47.40
2018-10-21T00:07:54.671Z,48.40
2018-10-21T00:08:54.667Z,46.90
2018-10-21T00:09:54.652Z,48.70
2018-10-21T00:10:54.644Z,47.20
2018-10-21T00:11:54.626Z,44.80
2018-10-21T00:12:54.616Z,46.90
2018-10-21T00:13:54.661Z,45.20
2018-10-21T00:14:54.598Z,45.80
2018-10-21T00:15:54.575Z,46.80
2018-10-21T00:16:54.580Z,46.50
2018-10-21T00:17:54.554Z,47.60
2018-10-21T00:18:54.548Z,49.40
2018-10-21T00:19:54.556Z,49.40
2018-10-21T00:20:54.551Z,51.30
2018-10-21T00:21:54.508Z,52.50
2018-10-21T00:22:54.509Z,52.20
2018-10-21T00:23:54.481Z,48.20
2018-10-21T00:24:54.482Z,49.40
2018-10-21T00:25:54.474Z,48.50
2018-10-21T00:26:54.503Z,49.60
2018-10-21T00:27:54.439Z,48.20
2018-10-21T00:28:54.445Z,50.40
2018-10-21T00:29:54.489Z,48.80
2018-10-21T00:30:54.458Z,47.20
2018-10-21T00:31:54.424Z,48.30
2018-10-21T00:32:54.421Z,47.20
2018-10-21T00:33:54.376Z,49.90
2018-10-21T00:34:54.407Z,47.70
2018-10-21T00:35:54.385Z,48.50
2018-10-21T00:36:54.376Z,51.80
2018-10-21T00:37:54.335Z,49.90
2018-10-21T00:38:54.328Z,49.70
2018-10-21T00:39:54.341Z,48.80
2018-10-21T00:40:54.339Z,49.10
2018-10-21T00:41:54.311Z,47.90
2018-10-21T00:42:54.294Z,48.40
2018-10-21T00:43:54.272Z,47.90
2018-10-21T00:44:54.325Z,44.70
2018-10-21T00:45:54.280Z,44.20
2018-10-21T00:46:54.281Z,46.90
2018-10-21T00:47:54.227Z,47.80
2018-10-21T00:48:54.270Z,47.80
2018-10-21T00:49:54.231Z,47.70
2018-10-21T00:50:54.210Z,49.40
2018-10-21T00:51:54.220Z,44.30
2018-10-21T00:52:54.180Z,44.70
2018-10-21T00:53:54.174Z,45.60
2018-10-21T00:54:54.167Z,44.30
2018-10-21T00:55:54.167Z,44.90
2018-10-21T00:56:54.146Z,43.80
2018-10-21T00:57:54.128Z,42.90
2018-10-21T00:58:54.126Z,44.50
2018-10-21T00:59:54.117Z,42.00
2018-10-21T01:00:54.095Z,43.00
2018-10-21T01:01:54.121Z,41.00
2018-10-21T01:02:54.116Z,41.60
2018-10-21T01:03:54.075Z,42.30
2018-10-21T01:04:54.077Z,41.40
2018-10-21T01:05:54.038Z,40.60
2018-10-21T01:06:54.039Z,40.90
2018-10-21T01:07:54.029Z,41.90
2018-10-21T01:08:54.046Z,44.00
2018-10-21T01:09:54.015Z,45.50
2018-10-21T01:10:53.999Z,46.90
2018-10-21T01:11:53.991Z,46.90
2018-10-21T01:12:53.978Z,49.30
2018-10-21T01:13:53.999Z,48.50
2018-10-21T01:14:53.990Z,46.70
2018-10-21T01:15:53.955Z,47.50
2018-10-21T01:16:53.922Z,46.50
2018-10-21T01:17:53.960Z,48.10
2018-10-21T01:18:53.933Z,50.20
2018-10-21T01:19:53.911Z,55.50
2018-10-21T01:20:53.909Z,51.30
2018-10-21T01:21:53.908Z,50.70
2018-10-21T01:22:53.896Z,49.90
2018-10-21T01:23:53.851Z,49.40
2018-10-21T01:24:53.855Z,48.50
2018-10-21T01:25:53.838Z,48.20
2018-10-21T01:26:53.848Z,45.50
2018-10-21T01:27:53.810Z,46.00
2018-10-21T01:28:53.813Z,45.10
2018-10-21T01:29:53.803Z,44.70
2018-10-21T01:30:53.824Z,44.70
2018-10-21T01:31:53.764Z,43.80
2018-10-21T01:32:53.770Z,46.30
2018-10-21T01:33:53.811Z,46.30
2018-10-21T01:34:53.733Z,45.30
2018-10-21T01:35:53.733Z,45.70
2018-10-21T01:36:53.741Z,45.70
2018-10-21T01:37:53.882Z,48.10
2018-10-21T01:38:53.708Z,46.50
2018-10-21T01:39:53.687Z,43.90
2018-10-21T01:40:53.723Z,43.80
2018-10-21T01:41:53.676Z,42.40
2018-10-21T01:42:53.672Z,44.30
2018-10-21T01:43:53.643Z,44.40
2018-10-21T01:44:53.656Z,44.20
2018-10-21T01:45:53.620Z,41.70
2018-10-21T01:46:53.619Z,42.10
2018-10-21T01:47:53.612Z,41.90
2018-10-21T01:48:53.605Z,40.90
2018-10-21T01:49:53.605Z,41.70
2018-10-21T01:50:53.574Z,42.10
2018-10-21T01:51:53.552Z,41.60
2018-10-21T01:52:53.621Z,42.90
2018-10-21T01:53:53.535Z,43.30
2018-10-21T01:54:53.563Z,44.70
2018-10-21T01:55:53.526Z,43.90
2018-10-21T01:56:53.508Z,42.90
2018-10-21T01:57:53.509Z,44.50
2018-10-21T01:58:53.514Z,43.20
2018-10-21T01:59:53.472Z,42.40
2018-10-21T02:00:53.473Z,42.90
2018-10-21T02:01:53.473Z,45.80
2018-10-21T02:02:53.447Z,45.90
2018-10-21T02:03:53.434Z,47.90
2018-10-21T02:04:53.455Z,48.00
2018-10-21T02:05:53.428Z,46.60
2018-10-21T02:06:53.405Z,45.30
2018-10-21T02:07:53.440Z,44.60
2018-10-21T02:08:53.440Z,42.10
2018-10-21T02:09:53.366Z,43.20
2018-10-21T02:10:53.378Z,43.30
2018-10-21T02:11:53.376Z,43.70
2018-10-21T02:12:53.333Z,42.20
2018-10-21T02:13:53.341Z,43.50
2018-10-21T02:14:53.327Z,44.60
2018-10-21T02:15:53.297Z,43.50
2018-10-21T02:16:53.307Z,44.60
2018-10-21T02:17:53.355Z,44.40
2018-10-21T02:18:53.296Z,45.10
2018-10-21T02:19:53.272Z,43.90
2018-10-21T02:20:53.283Z,45.60
2018-10-21T02:21:53.247Z,43.70
2018-10-21T02:22:53.310Z,41.20
2018-10-21T02:23:53.233Z,39.60
2018-10-21T02:24:53.212Z,38.70
2018-10-21T02:25:53.226Z,39.40
2018-10-21T02:26:53.272Z,39.50
2018-10-21T02:27:53.236Z,39.50
2018-10-21T02:28:53.166Z,40.70
2018-10-21T02:29:53.172Z,39.70
2018-10-21T02:30:53.154Z,40.50
2018-10-21T02:31:53.160Z,37.90
2018-10-21T02:32:53.130Z,38.00
2018-10-21T02:33:53.128Z,39.30
2018-10-21T02:34:53.151Z,38.90
2018-10-21T02:35:53.106Z,37.20
2018-10-21T02:36:53.085Z,38.40
2018-10-21T02:37:53.093Z,38.10
2018-10-21T02:38:53.066Z,39.40
2018-10-21T02:39:53.119Z,39.00
2018-10-21T02:40:53.060Z,41.10
2018-10-21T02:41:53.030Z,39.30
2018-10-21T02:42:53.066Z,40.40
2018-10-21T02:43:53.037Z,40.90
2018-10-21T02:44:52.998Z,40.60
2018-10-21T02:45:52.983Z,43.50
2018-10-21T02:46:52.973Z,43.70
2018-10-21T02:47:53.037Z,42.80
2018-10-21T02:48:52.965Z,42.00
2018-10-21T02:49:52.965Z,41.30
2018-10-21T02:50:52.933Z,42.60
2018-10-21T02:51:52.930Z,44.00
2018-10-21T02:52:52.925Z,46.00
2018-10-21T02:53:52.940Z,43.30
2018-10-21T02:54:52.892Z,42.00
2018-10-21T02:55:52.887Z,41.40
2018-10-21T02:56:52.878Z,42.10
2018-10-21T02:57:52.908Z,39.70
2018-10-21T02:58:52.852Z,40.90
2018-10-21T02:59:52.859Z,42.00
2018-10-21T03:00:52.838Z,41.10
2018-10-21T03:01:52.846Z,41.60
2018-10-21T03:02:52.835Z,41.20
2018-10-21T03:03:52.813Z,41.00
2018-10-21T03:04:52.798Z,42.10
2018-10-21T03:05:52.789Z,43.10
2018-10-21T03:06:52.811Z,43.20
2018-10-21T03:07:52.760Z,44.60
2018-10-21T03:08:52.779Z,44.40
2018-10-21T03:09:52.755Z,45.50
2018-10-21T03:10:52.725Z,46.90
2018-10-21T03:11:52.749Z,45.50
2018-10-21T03:12:52.725Z,45.60
2018-10-21T03:13:52.694Z,47.20
2018-10-21T03:14:52.686Z,42.40
2018-10-21T03:15:52.671Z,41.30
2018-10-21T03:16:52.659Z,44.10
2018-10-21T03:17:52.661Z,44.50
2018-10-21T03:18:52.656Z,43.00
2018-10-21T03:19:52.665Z,43.60
2018-10-21T03:20:52.624Z,40.10
2018-10-21T03:21:52.608Z,41.10
2018-10-21T03:22:52.596Z,43.10
2018-10-21T03:23:52.612Z,42.60
2018-10-21T03:24:52.686Z,42.20
2018-10-21T03:25:52.589Z,43.30
2018-10-21T03:26:52.561Z,43.50
2018-10-21T03:27:52.563Z,43.50
2018-10-21T03:28:52.532Z,44.50
2018-10-21T03:29:52.549Z,44.10
2018-10-21T03:30:52.530Z,44.70
2018-10-21T03:31:52.521Z,41.70
2018-10-21T03:32:52.668Z,41.30
2018-10-21T03:33:52.515Z,40.50
2018-10-21T03:34:52.484Z,42.60
2018-10-21T03:35:52.489Z,43.00
2018-10-21T03:36:52.468Z,44.00
2018-10-21T03:37:52.446Z,44.90
2018-10-21T03:38:52.443Z,43.60
2018-10-21T03:39:52.432Z,42.80
2018-10-21T03:40:52.430Z,43.90
2018-10-21T03:41:52.420Z,44.00
2018-10-21T03:42:52.384Z,42.10
2018-10-21T03:43:52.382Z,42.10
2018-10-21T03:44:52.372Z,42.20
2018-10-21T03:45:52.365Z,42.60
2018-10-21T03:46:52.382Z,42.20
2018-10-21T03:47:53.123Z,41.80
2018-10-21T03:48:52.322Z,43.00
2018-10-21T03:49:52.319Z,43.30
2018-10-21T03:50:52.309Z,41.50
2018-10-21T03:51:52.326Z,42.40
2018-10-21T03:52:52.312Z,42.00
2018-10-21T03:53:52.276Z,43.10
2018-10-21T03:54:52.259Z,41.10
2018-10-21T03:55:52.250Z,42.60
2018-10-21T03:56:52.268Z,41.50
2018-10-21T03:57:52.234Z,42.00
2018-10-21T03:58:52.220Z,41.90
2018-10-21T03:59:52.212Z,42.50
2018-10-21T04:00:52.200Z,40.50
2018-10-21T04:01:52.208Z,41.30
2018-10-21T04:02:52.175Z,41.70
2018-10-21T04:03:52.174Z,42.60
2018-10-21T04:04:52.179Z,41.30
2018-10-21T04:05:52.139Z,43.00
2018-10-21T04:06:52.143Z,41.80
2018-10-21T04:07:52.124Z,41.60
2018-10-21T04:08:52.109Z,41.70
2018-10-21T04:09:52.124Z,41.60
2018-10-21T04:10:52.089Z,42.60
2018-10-21T04:11:52.081Z,44.10
2018-10-21T04:12:52.107Z,44.40
2018-10-21T04:13:52.061Z,42.80
2018-10-21T04:14:52.082Z,44.00
2018-10-21T04:15:52.049Z,43.90
2018-10-21T04:16:52.027Z,44.80
2018-10-21T04:17:52.013Z,41.90
2018-10-21T04:18:52.008Z,45.40
2018-10-21T04:19:51.998Z,41.50
2018-10-21T04:20:52.010Z,43.00
2018-10-21T04:21:51.990Z,43.20
2018-10-21T04:22:51.978Z,43.90
2018-10-21T04:23:51.957Z,42.20
2018-10-21T04:24:51.947Z,42.40
2018-10-21T04:25:51.945Z,42.80
2018-10-21T04:26:51.954Z,44.40
2018-10-21T04:27:51.918Z,44.00
2018-10-21T04:28:51.897Z,43.50
2018-10-21T04:29:51.889Z,43.00
2018-10-21T04:30:51.890Z,45.00
2018-10-21T04:31:51.875Z,43.60
2018-10-21T04:32:51.885Z,44.30
2018-10-21T04:33:51.850Z,44.10
2018-10-21T04:34:51.832Z,44.00
2018-10-21T04:35:51.822Z,45.20
2018-10-21T04:36:51.841Z,44.20
2018-10-21T04:37:51.819Z,42.20
2018-10-21T04:38:51.805Z,42.80
2018-10-21T04:39:51.806Z,44.10
2018-10-21T04:40:51.819Z,44.60
2018-10-21T04:41:51.769Z,41.00
2018-10-21T04:42:51.773Z,43.60
2018-10-21T04:43:51.739Z,43.40
2018-10-21T04:44:51.760Z,43.50
2018-10-21T04:45:51.733Z,42.30
2018-10-21T04:46:51.831Z,43.50
2018-10-21T04:47:51.711Z,42.50
2018-10-21T04:48:51.712Z,43.60
2018-10-21T04:49:51.680Z,44.30
2018-10-21T04:50:51.666Z,44.30
2018-10-21T04:51:51.723Z,44.10
2018-10-21T04:52:51.657Z,43.30
2018-10-21T04:53:51.657Z,44.30
2018-10-21T04:54:51.655Z,46.30
2018-10-21T04:55:51.615Z,43.40
2018-10-21T04:56:51.644Z,43.30
2018-10-21T04:57:51.600Z,43.70
2018-10-21T04:58:51.592Z,43.70
2018-10-21T04:59:51.581Z,43.80
2018-10-21T05:00:51.659Z,43.10
2018-10-21T05:01:51.546Z,43.70
2018-10-21T05:02:51.540Z,44.00
2018-10-21T05:03:51.565Z,42.80
2018-10-21T05:04:51.515Z,43.20
2018-10-21T05:05:51.523Z,44.10
2018-10-21T05:06:51.496Z,43.50
2018-10-21T05:07:51.560Z,44.10
2018-10-21T05:08:51.505Z,44.30
2018-10-21T05:09:51.471Z,45.70
2018-10-21T05:10:51.453Z,45.20
2018-10-21T05:11:51.446Z,44.60
2018-10-21T05:12:51.434Z,44.50
2018-10-21T05:13:51.508Z,45.50
2018-10-21T05:14:51.417Z,44.30
2018-10-21T05:15:51.429Z,45.00
2018-10-21T05:16:51.435Z,45.40
2018-10-21T05:17:51.379Z,44.90
2018-10-21T05:18:51.370Z,45.00
2018-10-21T05:19:51.454Z,43.90
2018-10-21T05:20:51.369Z,45.90
2018-10-21T05:21:51.400Z,43.80
2018-10-21T05:22:51.329Z,43.30
2018-10-21T05:23:51.336Z,44.50
2018-10-21T05:24:51.308Z,43.90
2018-10-21T05:25:51.306Z,44.60
2018-10-21T05:26:51.285Z,43.90
2018-10-21T05:27:51.279Z,44.30
2018-10-21T05:28:51.300Z,45.10
2018-10-21T05:29:51.264Z,43.40
2018-10-21T05:30:51.260Z,44.60
2018-10-21T05:31:51.233Z,44.60
2018-10-21T05:32:51.264Z,44.50
2018-10-21T05:33:51.211Z,42.40
2018-10-21T05:34:51.203Z,42.70
2018-10-21T05:35:51.219Z,43.00
2018-10-21T05:36:51.183Z,46.50
2018-10-21T05:37:51.231Z,43.80
2018-10-21T05:38:51.177Z,46.00
2018-10-21T05:39:51.169Z,44.50
2018-10-21T05:40:51.156Z,44.30
2018-10-21T05:41:51.126Z,43.40
2018-10-21T05:42:51.120Z,44.10
2018-10-21T05:43:51.127Z,44.30
2018-10-21T05:44:51.123Z,45.90
2018-10-21T05:45:51.087Z,44.60
2018-10-21T05:46:51.171Z,43.20
2018-10-21T05:47:51.063Z,48.50
2018-10-21T05:48:51.063Z,43.60
2018-10-21T05:49:51.078Z,43.80
2018-10-21T05:50:51.034Z,42.30
2018-10-21T05:51:51.017Z,41.60
2018-10-21T05:52:51.013Z,42.70
2018-10-21T05:53:51.012Z,43.10
2018-10-21T05:54:51.009Z,43.10
2018-10-21T05:55:51.010Z,43.00
2018-10-21T05:56:50.967Z,42.30
2018-10-21T05:57:50.985Z,43.50
2018-10-21T05:58:50.951Z,44.80
2018-10-21T05:59:50.950Z,44.40
2018-10-21T06:00:50.930Z,45.50
2018-10-21T06:01:50.932Z,43.80
2018-10-21T06:02:51.049Z,43.30
2018-10-21T06:03:50.913Z,43.80
2018-10-21T06:04:50.906Z,42.70
2018-10-21T06:05:50.876Z,43.60
2018-10-21T06:06:50.883Z,44.50
2018-10-21T06:07:50.886Z,46.00
2018-10-21T06:08:50.861Z,46.50
2018-10-21T06:09:50.881Z,45.70
2018-10-21T06:10:50.836Z,45.10
2018-10-21T06:11:50.843Z,45.70
2018-10-21T06:12:50.798Z,44.40
2018-10-21T06:13:50.786Z,44.90
2018-10-21T06:14:50.805Z,44.10
2018-10-21T06:15:50.796Z,45.70
2018-10-21T06:16:50.756Z,44.80
2018-10-21T06:17:50.751Z,42.90
2018-10-21T06:18:50.739Z,43.40
2018-10-21T06:19:50.729Z,43.70
2018-10-21T06:20:50.733Z,43.20
2018-10-21T06:21:50.708Z,41.90
2018-10-21T06:22:50.693Z,43.90
2018-10-21T06:23:50.777Z,41.20
2018-10-21T06:24:50.682Z,43.90
2018-10-21T06:25:50.677Z,43.40
2018-10-21T06:26:50.659Z,42.90
2018-10-21T06:27:50.638Z,43.10
2018-10-21T06:28:50.630Z,42.40
2018-10-21T06:29:50.619Z,42.40
2018-10-21T06:30:50.632Z,44.60
2018-10-21T06:31:50.594Z,43.20
2018-10-21T06:32:50.620Z,42.30
2018-10-21T06:33:50.588Z,43.00
2018-10-21T06:34:50.576Z,42.20
2018-10-21T06:35:50.574Z,44.70
2018-10-21T06:36:50.590Z,42.60
2018-10-21T06:37:50.532Z,41.60
2018-10-21T06:38:50.541Z,42.50
2018-10-21T06:39:50.522Z,40.50
2018-10-21T06:40:50.505Z,42.20
2018-10-21T06:41:50.509Z,41.40
2018-10-21T06:42:50.501Z,40.70
2018-10-21T06:43:50.467Z,39.50
2018-10-21T06:44:50.466Z,41.50
2018-10-21T06:45:50.639Z,40.50
2018-10-21T06:46:50.477Z,42.70
2018-10-21T06:47:50.431Z,41.70
2018-10-21T06:48:50.421Z,41.70
2018-10-21T06:49:50.485Z,39.70
2018-10-21T06:50:50.414Z,39.80
2018-10-21T06:51:50.404Z,40.10
2018-10-21T06:52:50.407Z,39.40
2018-10-21T06:53:50.380Z,40.60
2018-10-21T06:54:50.426Z,39.70
2018-10-21T06:55:50.343Z,39.10
2018-10-21T06:56:50.488Z,39.40
2018-10-21T06:57:50.462Z,40.30
2018-10-21T06:58:50.338Z,39.10
2018-10-21T06:59:50.302Z,39.80
2018-10-21T07:00:50.291Z,40.10
2018-10-21T07:01:50.289Z,40.00
2018-10-21T07:02:50.282Z,40.40
2018-10-21T07:03:50.289Z,39.00
2018-10-21T07:04:50.333Z,40.50
2018-10-21T07:05:50.258Z,39.10
2018-10-21T07:06:50.225Z,38.70
2018-10-21T07:07:50.233Z,40.00
2018-10-21T07:08:50.212Z,38.30
2018-10-21T07:09:50.211Z,39.10
2018-10-21T07:10:50.198Z,39.00
2018-10-21T07:11:50.210Z,38.20
2018-10-21T07:12:50.165Z,37.90
2018-10-21T07:13:50.186Z,37.80
2018-10-21T07:14:50.166Z,38.00
2018-10-21T07:15:50.290Z,35.80
2018-10-21T07:16:50.222Z,35.00
2018-10-21T07:17:50.116Z,34.50
2018-10-21T07:18:50.107Z,33.50
2018-10-21T07:19:50.158Z,33.10
2018-10-21T07:20:50.081Z,34.00
2018-10-21T07:21:50.063Z,33.10
2018-10-21T07:22:50.082Z,29.70
2018-10-21T07:23:50.065Z,28.90
2018-10-21T07:24:50.067Z,28.40
2018-10-21T07:25:50.021Z,27.60
2018-10-21T07:26:50.013Z,27.70
2018-10-21T07:27:50.075Z,28.70
2018-10-21T07:28:50.003Z,26.90
2018-10-21T07:29:49.999Z,24.20
2018-10-21T07:30:49.970Z,23.90
2018-10-21T07:31:50.604Z,23.30
2018-10-21T07:32:49.979Z,24.50
2018-10-21T07:33:49.934Z,24.90
2018-10-21T07:34:49.954Z,24.30
2018-10-21T07:35:49.918Z,24.00
2018-10-21T07:36:49.953Z,23.70
2018-10-21T07:37:49.910Z,23.00
2018-10-21T07:38:49.896Z,23.00
2018-10-21T07:39:49.973Z,23.30
2018-10-21T07:40:49.862Z,22.90
2018-10-21T07:41:49.850Z,22.00
2018-10-21T07:42:49.853Z,21.40
2018-10-21T07:43:49.849Z,22.00
2018-10-21T07:44:49.825Z,21.90
2018-10-21T07:45:49.826Z,21.00
2018-10-21T07:46:49.817Z,20.90
2018-10-21T07:47:49.787Z,20.50
2018-10-21T07:48:49.799Z,19.90
2018-10-21T07:49:49.771Z,19.70
2018-10-21T07:50:49.802Z,20.20
2018-10-21T07:51:49.791Z,19.40
2018-10-21T07:52:49.763Z,18.90
2018-10-21T07:53:49.736Z,19.70
2018-10-21T07:54:49.792Z,19.30
2018-10-21T07:55:49.783Z,20.80
2018-10-21T07:56:49.724Z,19.60
2018-10-21T07:57:49.684Z,19.50
2018-10-21T07:58:49.676Z,19.50
2018-10-21T07:59:49.677Z,20.50
2018-10-21T08:00:49.719Z,21.30
2018-10-21T08:01:49.634Z,20.40
2018-10-21T08:02:49.624Z,19.40
2018-10-21T08:03:49.657Z,20.10
2018-10-21T08:04:49.633Z,20.50
2018-10-21T08:05:49.588Z,20.40
2018-10-21T08:06:49.587Z,20.50
2018-10-21T08:07:49.575Z,20.60
2018-10-21T08:08:49.602Z,19.50
2018-10-21T08:09:49.601Z,20.50
2018-10-21T08:10:49.564Z,20.40
2018-10-21T08:11:49.527Z,21.10
2018-10-21T08:12:49.528Z,20.80
2018-10-21T08:13:49.504Z,20.00
2018-10-21T08:14:49.591Z,21.10
2018-10-21T08:15:49.506Z,20.00
2018-10-21T08:16:49.471Z,19.40
2018-10-21T08:17:49.478Z,20.20
2018-10-21T08:18:49.484Z,19.70
2018-10-21T08:19:49.441Z,20.10
2018-10-21T08:20:53.309Z,19.20
2018-10-21T08:21:49.421Z,19.10
2018-10-21T08:22:49.414Z,18.40
2018-10-21T08:23:49.397Z,19.60
2018-10-21T08:24:49.415Z,19.80
2018-10-21T08:25:49.409Z,18.80
2018-10-21T08:26:49.419Z,19.30
2018-10-21T08:27:49.355Z,19.20
2018-10-21T08:28:49.343Z,19.40
2018-10-21T08:29:49.339Z,19.40
2018-10-21T08:30:49.339Z,18.70
2018-10-21T08:31:49.321Z,19.20
2018-10-21T08:32:49.319Z,19.10
2018-10-21T08:33:49.294Z,18.70
2018-10-21T08:34:49.292Z,18.00
2018-10-21T08:35:49.307Z,19.00
2018-10-21T08:36:49.306Z,18.60
2018-10-21T08:37:49.249Z,18.10
2018-10-21T08:38:49.238Z,19.10
2018-10-21T08:39:49.246Z,18.40
2018-10-21T08:40:49.217Z,18.20
2018-10-21T08:41:49.209Z,17.30
2018-10-21T08:42:49.203Z,18.20
2018-10-21T08:43:49.226Z,17.70
2018-10-21T08:44:49.209Z,17.60
2018-10-21T08:45:49.183Z,18.00
2018-10-21T08:46:49.153Z,17.90
2018-10-21T08:47:49.164Z,17.70
2018-10-21T08:48:49.166Z,16.60
2018-10-21T08:49:49.183Z,16.10
2018-10-21T08:50:49.121Z,16.30
2018-10-21T08:51:49.111Z,17.30
2018-10-21T08:52:49.135Z,17.80
2018-10-21T08:53:49.106Z,17.00
2018-10-21T08:54:49.102Z,17.90
2018-10-21T08:55:49.130Z,16.40
2018-10-21T08:56:49.053Z,16.50
2018-10-21T08:57:49.069Z,15.50
2018-10-21T08:58:49.035Z,15.90
2018-10-21T08:59:49.020Z,16.30
2018-10-21T09:00:49.024Z,16.30
2018-10-21T09:01:49.004Z,13.80
2018-10-21T09:02:48.980Z,15.00
2018-10-21T09:03:48.971Z,13.70
2018-10-21T09:04:48.989Z,13.10
2018-10-21T09:05:48.950Z,13.40
2018-10-21T09:06:48.980Z,14.60
2018-10-21T09:07:49.025Z,12.30
2018-10-21T09:08:48.937Z,12.80
2018-10-21T09:09:48.909Z,12.60
2018-10-21T09:10:49.043Z,13.40
2018-10-21T09:11:48.966Z,13.90
2018-10-21T09:12:48.907Z,12.70
2018-10-21T09:13:48.865Z,11.80
2018-10-21T09:14:48.878Z,12.10
2018-10-21T09:15:48.847Z,11.80
2018-10-21T09:16:48.881Z,11.10
2018-10-21T09:17:48.819Z,12.10
2018-10-21T09:18:48.819Z,12.80
2018-10-21T09:19:48.833Z,12.80
2018-10-21T09:20:48.788Z,12.00
2018-10-21T09:21:48.823Z,12.10
2018-10-21T09:22:48.783Z,11.50
2018-10-21T09:23:48.834Z,10.10
2018-10-21T09:24:48.751Z,10.20
2018-10-21T09:25:48.757Z,10.40
2018-10-21T09:26:48.735Z,10.20
2018-10-21T09:27:48.809Z,9.80
2018-10-21T09:28:48.704Z,10.20
2018-10-21T09:29:48.695Z,9.70
2018-10-21T09:30:48.700Z,10.50
2018-10-21T09:31:48.683Z,9.90
2018-10-21T09:32:48.659Z,9.40
2018-10-21T09:33:48.670Z,9.90
2018-10-21T09:34:48.647Z,10.00
2018-10-21T09:35:48.680Z,9.80
2018-10-21T09:36:48.622Z,10.30
2018-10-21T09:37:48.612Z,10.20
2018-10-21T09:38:48.612Z,10.10
2018-10-21T09:39:48.601Z,11.20
2018-10-21T09:40:48.587Z,12.10
2018-10-21T09:41:48.570Z,10.80
2018-10-21T09:42:48.556Z,10.20
2018-10-21T09:43:48.576Z,9.60
2018-10-21T09:44:48.537Z,10.70
2018-10-21T09:45:48.525Z,10.60
2018-10-21T09:46:48.534Z,9.70
2018-10-21T09:47:48.513Z,11.80
2018-10-21T09:48:48.550Z,11.60
2018-10-21T09:49:48.498Z,10.30
2018-10-21T09:50:48.475Z,10.30
2018-10-21T09:51:48.475Z,9.30
2018-10-21T09:52:48.449Z,10.90
2018-10-21T09:53:48.461Z,11.10
2018-10-21T09:54:48.436Z,11.00
2018-10-21T09:55:48.433Z,11.40
2018-10-21T09:56:48.412Z,12.70
2018-10-21T09:57:48.402Z,11.80
2018-10-21T09:58:48.426Z,11.10
2018-10-21T09:59:48.375Z,10.80
2018-10-21T10:00:48.431Z,10.30
2018-10-21T10:01:48.360Z,9.70
2018-10-21T10:02:48.366Z,9.60
2018-10-21T10:03:48.378Z,10.90
2018-10-21T10:04:48.322Z,10.30
2018-10-21T10:05:48.317Z,10.00
2018-10-21T10:06:48.345Z,9.90
2018-10-21T10:07:48.291Z,8.50
2018-10-21T10:08:48.309Z,8.90
2018-10-21T10:09:48.286Z,8.50
2018-10-21T10:10:48.284Z,8.00
2018-10-21T10:11:48.254Z,8.10
2018-10-21T10:12:48.248Z,7.90
2018-10-21T10:13:48.258Z,6.90
2018-10-21T10:14:48.229Z,7.40
2018-10-21T10:15:48.208Z,7.10
2018-10-21T10:16:48.220Z,7.40
2018-10-21T10:17:48.228Z,7.90
2018-10-21T10:18:48.212Z,8.10
2018-10-21T10:19:48.166Z,8.00
2018-10-21T10:20:48.167Z,8.60
2018-10-21T10:21:48.178Z,8.60
2018-10-21T10:22:48.137Z,8.50
2018-10-21T10:23:48.204Z,8.20
2018-10-21T10:24:48.117Z,7.80
2018-10-21T10:25:48.108Z,7.90
2018-10-21T10:26:48.115Z,8.60
2018-10-21T10:27:48.091Z,8.40
2018-10-21T10:28:48.126Z,8.30
2018-10-21T10:29:48.067Z,8.80
2018-10-21T10:30:48.052Z,8.10
2018-10-21T10:31:48.040Z,8.60
2018-10-21T10:32:48.054Z,7.30
2018-10-21T10:33:48.036Z,7.20
2018-10-21T10:34:48.012Z,7.30
2018-10-21T10:35:48.021Z,6.90
2018-10-21T10:36:47.985Z,6.60
2018-10-21T10:37:48.013Z,7.00
2018-10-21T10:38:47.984Z,7.10
2018-10-21T10:39:47.954Z,7.30
2018-10-21T10:40:47.978Z,7.00
2018-10-21T10:41:48.197Z,6.80
2018-10-21T10:42:47.999Z,8.10
2018-10-21T10:43:47.937Z,7.50
2018-10-21T10:44:48.066Z,7.10
2018-10-21T10:45:47.898Z,7.60
2018-10-21T10:46:47.903Z,6.10
2018-10-21T10:47:47.994Z,7.20
2018-10-21T10:48:47.880Z,6.80
2018-10-21T10:49:47.872Z,5.70
2018-10-21T10:50:47.843Z,5.80
2018-10-21T10:51:47.890Z,6.00
2018-10-21T10:52:48.042Z,5.60
2018-10-21T10:53:47.816Z,6.00
2018-10-21T10:54:47.800Z,5.90
2018-10-21T10:55:48.025Z,6.00
2018-10-21T10:56:47.817Z,5.40
2018-10-21T10:57:47.771Z,6.00
2018-10-21T10:58:47.776Z,5.90
2018-10-21T10:59:47.764Z,6.90
2018-10-21T11:00:47.812Z,6.00
2018-10-21T11:01:47.731Z,6.20
2018-10-21T11:02:47.731Z,6.80
2018-10-21T11:03:47.767Z,6.80
2018-10-21T11:04:47.724Z,6.80
2018-10-21T11:05:47.714Z,7.90
2018-10-21T11:06:47.679Z,5.90
2018-10-21T11:07:47.688Z,6.30
2018-10-21T11:08:47.656Z,7.00
2018-10-21T11:09:47.693Z,7.10
2018-10-21T11:10:47.629Z,7.00
2018-10-21T11:11:47.621Z,6.20
2018-10-21T11:12:47.612Z,6.40
2018-10-21T11:13:47.643Z,5.80
2018-10-21T11:14:47.669Z,5.60
2018-10-21T11:15:47.599Z,6.30
2018-10-21T11:16:47.592Z,6.40
2018-10-21T11:17:47.560Z,6.90
2018-10-21T11:18:47.560Z,6.10
2018-10-21T11:19:47.543Z,6.10
2018-10-21T11:20:47.533Z,6.10
2018-10-21T11:21:47.611Z,5.60
2018-10-21T11:22:47.529Z,6.10
2018-10-21T11:23:47.494Z,6.00
2018-10-21T11:24:47.504Z,4.60
2018-10-21T11:25:47.504Z,5.70
2018-10-21T11:26:47.503Z,4.60
2018-10-21T11:27:47.493Z,6.20
2018-10-21T11:28:47.450Z,5.80
2018-10-21T11:29:47.433Z,5.00
2018-10-21T11:30:47.422Z,4.80
2018-10-21T11:31:47.451Z,6.00
2018-10-21T11:32:47.443Z,5.10
2018-10-21T11:33:47.405Z,4.70
2018-10-21T11:34:47.385Z,5.10
2018-10-21T11:35:47.372Z,5.00
2018-10-21T11:36:47.480Z,5.10
2018-10-21T11:37:47.385Z,4.30
2018-10-21T11:38:47.335Z,4.60
2018-10-21T11:39:47.346Z,5.00
2018-10-21T11:40:47.325Z,5.00
2018-10-21T11:41:47.317Z,5.40
2018-10-21T11:42:47.315Z,5.20
2018-10-21T11:43:47.285Z,5.10
2018-10-21T11:44:47.276Z,5.40
2018-10-21T11:45:47.332Z,5.50
2018-10-21T11:46:47.304Z,6.40
2018-10-21T11:47:47.245Z,5.20
2018-10-21T11:48:47.257Z,6.00
2018-10-21T11:49:47.217Z,5.30
2018-10-21T11:50:47.207Z,5.00
2018-10-21T11:51:47.197Z,5.20
2018-10-21T11:52:47.308Z,5.60
2018-10-21T11:53:47.186Z,6.50
2018-10-21T11:54:47.191Z,4.90
2018-10-21T11:55:47.154Z,3.30
2018-10-21T11:56:47.172Z,4.20
2018-10-21T11:57:47.133Z,4.40
2018-10-21T11:58:47.155Z,4.60
2018-10-21T11:59:47.127Z,4.50
2018-10-21T12:00:47.102Z,3.70
2018-10-21T12:01:47.175Z,3.10
2018-10-21T12:02:47.097Z,3.10
2018-10-21T12:03:47.079Z,3.70
2018-10-21T12:04:47.080Z,3.70
2018-10-21T12:05:47.051Z,3.90
2018-10-21T12:06:47.042Z,4.10
2018-10-21T12:07:47.057Z,3.90
2018-10-21T12:08:47.024Z,4.60
2018-10-21T12:09:47.018Z,4.70
2018-10-21T12:10:47.048Z,3.70
2018-10-21T12:11:46.991Z,4.70
2018-10-21T12:12:46.998Z,5.50
2018-10-21T12:13:46.960Z,4.90
2018-10-21T12:14:46.981Z,4.20
2018-10-21T12:15:47.052Z,4.90
2018-10-21T12:16:46.952Z,4.40
2018-10-21T12:17:46.920Z,4.80
2018-10-21T12:18:46.932Z,4.40
2018-10-21T12:19:46.997Z,4.60
2018-10-21T12:20:46.919Z,4.20
2018-10-21T12:21:46.877Z,4.80
2018-10-21T12:22:46.904Z,4.10
2018-10-21T12:23:46.863Z,4.10
2018-10-21T12:24:46.855Z,5.40
2018-10-21T12:25:46.988Z,4.50
2018-10-21T12:26:46.861Z,4.50
2018-10-21T12:27:46.822Z,5.30
2018-10-21T12:28:46.817Z,5.20
2018-10-21T12:29:46.797Z,5.10
2018-10-21T12:30:46.785Z,4.60
2018-10-21T12:31:46.857Z,4.30
2018-10-21T12:32:46.777Z,4.60
2018-10-21T12:33:46.761Z,4.20
2018-10-21T12:34:46.766Z,5.90
2018-10-21T12:35:46.733Z,5.20
2018-10-21T12:36:46.770Z,6.50
2018-10-21T12:37:46.708Z,4.20
2018-10-21T12:38:46.718Z,4.90
2018-10-21T12:39:46.692Z,5.80
2018-10-21T12:40:46.770Z,5.70
2018-10-21T12:41:46.672Z,5.60
2018-10-21T12:42:46.658Z,6.10
2018-10-21T12:43:46.663Z,4.50
2018-10-21T12:44:46.642Z,4.10
2018-10-21T12:45:46.629Z,4.40
2018-10-21T12:46:46.619Z,5.50
2018-10-21T12:47:46.627Z,5.00
2018-10-21T12:48:46.594Z,5.50
2018-10-21T12:49:46.589Z,5.20
2018-10-21T12:50:46.580Z,5.20
2018-10-21T12:51:46.568Z,5.90
2018-10-21T12:52:46.577Z,4.60
2018-10-21T12:53:46.544Z,4.30
2018-10-21T12:54:46.530Z,3.80
2018-10-21T12:55:46.530Z,5.20
2018-10-21T12:56:46.510Z,5.00
2018-10-21T12:57:46.528Z,5.50
2018-10-21T12:58:46.490Z,5.20